CSCL Long Beach — VRCZ7 — position and weather

sailwx.info

Track history (hours):
 
Tides and Currents Weather Stations Pressure Air Temp Water Temp Dewpoint Dewpoint Depression Visibility Wind Speed Wind Dir Waves Ship Positions

CSCL Long Beach

Last reported at 2014-Oct-10 15:31 UTC. Time now 2014-Oct-23 07:53 UTC.
Position N 35°37' E 025°59'.
Warning: this ship's position is 12 days out of date.

Length 336.7 m; beam 45.6 m; draft 15 m.

Type: Cargo ship. MMSI: 477883900.

Date/timePositionNaut miles runAvg speedWind from/ knotsBaromVisibWave heightAir tempDewpointWater temp
2014-Oct-10 15:31N 35°37' E 025°59'1616.7
2014-Oct-10 14:32N 35°46' E 025°42'1716.9
2014-Oct-10 13:33N 35°55' E 025°24'1716.9
2014-Oct-10 12:34N 36°04' E 025°07'1717.1
2014-Oct-10 11:34N 36°14' E 024°49'1717.0
2014-Oct-10 10:34N 36°24' E 024°32'1716.5
2014-Oct-10 09:34N 36°33' E 024°15'1716.7
2014-Oct-10 08:33N 36°48' E 024°06'1717.1
2014-Oct-10 07:34N 37°04' E 023°58'3517.3
2014-Oct-10 05:34N 37°36' E 023°43'1717.5
2014-Oct-10 04:33N 37°53' E 023°37'4 4.0
2014-Oct-10 03:31N 37°57' E 023°35'0 0.0
2014-Oct-10 02:31N 37°57' E 023°35'0 0.0
2014-Oct-10 01:31N 37°57' E 023°35'0 0.0
2014-Oct-10 00:31N 37°57' E 023°35'0 0.0
2014-Oct-09 23:31N 37°57' E 023°35'0 0.0
2014-Oct-09 22:31N 37°57' E 023°35'0 0.0
2014-Oct-09 21:31N 37°57' E 023°35'0 0.0
2014-Oct-09 20:31N 37°57' E 023°35'0 0.0
2014-Oct-09 19:31N 37°57' E 023°35'0 0.0
2014-Oct-09 18:31N 37°57' E 023°35'0 0.0
2014-Oct-09 17:31N 37°57' E 023°35'0 0.0
2014-Oct-09 16:31N 37°57' E 023°35'0 0.0
2014-Oct-09 15:34N 37°57' E 023°35'0 0.0
2014-Oct-09 14:28N 37°57' E 023°35'0 0.0
2014-Oct-09 13:31N 37°57' E 023°35'0 0.0
2014-Oct-09 12:31N 37°57' E 023°35'0 0.0
2014-Oct-09 11:31N 37°57' E 023°35'0 0.0
2014-Oct-09 10:31N 37°57' E 023°35'0 0.0
2014-Oct-09 09:31N 37°57' E 023°35'0 0.0
2014-Oct-09 08:31N 37°57' E 023°35'0 0.0
2014-Oct-09 07:31N 37°57' E 023°35'0 0.0
2014-Oct-09 06:31N 37°57' E 023°35'0 0.0
2014-Oct-09 05:31N 37°57' E 023°35'2 1.8
2014-Oct-09 04:33N 37°56' E 023°36'3 2.5
2014-Oct-09 03:33N 37°54' E 023°38'7 7.4
2014-Oct-09 02:33N 37°47' E 023°41'1111.4
2014-Oct-09 01:33N 37°36' E 023°45'1514.5
2014-Oct-09 00:33N 37°21' E 023°42'3014.8
2014-Oct-08 22:31N 36°52' E 023°33'1714.9
2014-Oct-08 21:24N 36°35' E 023°30'66715.4
2014-Oct-07 02:06N 37°50' E 009°38'917.1
2014-Oct-07 01:33N 37°51' E 009°26'1717.0
2014-Oct-07 00:34N 37°54' E 009°05'1716.7
2014-Oct-06 23:33N 37°54' E 008°44'1716.9
2014-Oct-06 22:33N 37°53' E 008°23'1716.8
2014-Oct-06 21:33N 37°53' E 008°01'13617.0
2014-Oct-06 13:32N 37°45' E 005°09'1917.4
2014-Oct-06 12:26N 37°44' E 004°45'1517.2
2014-Oct-06 11:33N 37°43' E 004°25'1816.7
2014-Oct-06 10:29N 37°42' E 004°03'1616.7
2014-Oct-06 09:33N 37°42' E 003°43'2423.2
2014-Oct-06 08:32N 37°40' E 003°13'2424.3
2014-Oct-06 07:33N 37°36' E 002°44'2221.6
2014-Oct-06 06:33N 37°29' E 002°18'1717.2
2014-Oct-06 05:33N 37°23' E 001°58'1716.9
2014-Oct-06 04:33N 37°18' E 001°38'1717.1
2014-Oct-06 03:33N 37°12' E 001°17'1717.2
2014-Oct-06 02:33N 37°06' E 000°57'1717.2
2014-Oct-06 01:33N 37°01' E 000°37'1717.4
2014-Oct-06 00:33N 36°55' E 000°16'1717.0
2014-Oct-05 23:33N 36°50' W 000°04'1716.8
2014-Oct-05 22:33N 36°44' W 000°24'1716.8
2014-Oct-05 21:31N 36°39' W 000°45'2316.7
2014-Oct-05 20:09N 36°31' W 001°11'1016.8
2014-Oct-05 19:33N 36°28' W 001°23'19117.4
2014-Oct-05 08:34N 35°60' W 005°18'8116.2
2014-Oct-05 03:33N 36°02' W 006°57'1817.1
2014-Oct-05 02:32N 36°08' W 007°18'1816.9
2014-Oct-05 01:28N 36°12' W 007°40'1517.0
2014-Oct-05 00:33N 36°16' W 007°58'1716.7
2014-Oct-04 23:33N 36°21' W 008°18'1716.5
2014-Oct-04 22:32N 36°25' W 008°38'1616.6
2014-Oct-04 21:34N 36°30' W 008°58'1716.5
2014-Oct-04 20:32N 36°34' W 009°18'1717.0
2014-Oct-04 19:32N 36°47' W 009°32'2017.2
2014-Oct-04 18:23N 37°06' W 009°38'1717.2
2014-Oct-04 17:24N 37°22' W 009°45'1416.9
2014-Oct-04 16:33N 37°36' W 009°48'1717.1
2014-Oct-04 15:32N 37°53' W 009°53'1717.1
2014-Oct-04 14:31N 38°10' W 009°58'1717.1
2014-Oct-04 13:32N 38°26' W 010°02'1717.0
2014-Oct-04 12:32N 38°43' W 010°07'1717.1
2014-Oct-04 11:33N 38°60' W 010°08'1717.1
2014-Oct-04 10:33N 39°17' W 010°08'78215.5
2014-Oct-02 08:12N 50°24' W 000°34'1218.3
2014-Oct-02 07:34N 50°27' W 000°16'1818.0
2014-Oct-02 06:33N 50°32' E 000°12'1717.5
2014-Oct-02 05:34N 50°37' E 000°38'1716.9
2014-Oct-02 04:33N 50°46' E 000°60'1615.9
2014-Oct-02 03:34N 50°56' E 001°20'1716.9
2014-Oct-02 02:34N 51°08' E 001°38'1818.0
2014-Oct-02 01:34N 51°22' E 001°57'1515.0
2014-Oct-02 00:34N 51°21' E 002°21'1716.4
2014-Oct-01 23:33N 51°24' E 002°47'1515.2
2014-Oct-01 22:34N 51°22' E 003°11'1 1.2
2014-Oct-01 21:26N 51°21' E 003°11'0 0.0
2014-Oct-01 20:29N 51°21' E 003°11'0 0.0
2014-Oct-01 19:23N 51°21' E 003°11'0 0.0
2014-Oct-01 18:32N 51°21' E 003°11'0 0.0
2014-Oct-01 17:32N 51°21' E 003°11'0 0.0
2014-Oct-01 16:32N 51°21' E 003°11'0 0.0
2014-Oct-01 15:32N 51°21' E 003°11'0 0.0
2014-Oct-01 14:29N 51°21' E 003°11'0 0.0
2014-Oct-01 13:32N 51°21' E 003°11'0 0.0
2014-Oct-01 12:29N 51°21' E 003°11'0 0.0
2014-Oct-01 11:32N 51°21' E 003°11'0 0.0
2014-Oct-01 10:32N 51°21' E 003°11'0 0.0
2014-Oct-01 09:29N 51°21' E 003°11'0 0.0
2014-Oct-01 08:29N 51°21' E 003°11'0 0.0
2014-Oct-01 07:32N 51°21' E 003°11'0 0.2
2014-Oct-01 06:33N 51°21' E 003°12'5 5.5
2014-Oct-01 05:33N 51°24' E 003°04'1413.8
2014-Oct-01 04:31N 51°23' E 002°42'10 7.6
2014-Oct-01 03:14N 51°21' E 002°26'6 9.4
2014-Oct-01 02:33N 51°18' E 002°17'1212.4
2014-Oct-01 01:34N 51°24' E 001°59'1413.5
2014-Oct-01 00:34N 51°35' E 002°11'1414.0
2014-Sep-30 23:33N 51°45' E 002°26'1414.0
2014-Sep-30 22:33N 51°55' E 002°41'1514.1
2014-Sep-30 21:31N 52°03' E 003°02'1414.7
2014-Sep-30 20:33N 52°03' E 003°25'1515.1
2014-Sep-30 19:33N 52°03' E 003°50'1110.8
2014-Sep-30 18:33N 51°58' E 004°05'2 1.9
2014-Sep-30 17:33N 51°58' E 004°02'0 0.0
2014-Sep-30 16:30N 51°58' E 004°02'0 0.0
2014-Sep-30 15:33N 51°58' E 004°02'  
Track history (hours):
 
Tides and Currents Weather Stations Pressure Air Temp Water Temp Dewpoint Dewpoint Depression Visibility Wind Speed Wind Dir Waves Ship Positions

CSCL Long Beach

Last reported at 2014-Oct-10 15:31 UTC. Time now 2014-Oct-23 07:53 UTC.
Position N 35°37' E 025°59'.
Warning: this ship's position is 12 days out of date.

Length 336.7 m; beam 45.6 m; draft 15 m.

Type: Cargo ship. MMSI: 477883900.

Date/timePositionNaut miles runAvg speedWind from/ knotsBaromVisibWave heightAir tempDewpointWater temp
2014-Oct-10 15:31N 35°37' E 025°59'1616.7
2014-Oct-10 14:32N 35°46' E 025°42'1716.9
2014-Oct-10 13:33N 35°55' E 025°24'1716.9
2014-Oct-10 12:34N 36°04' E 025°07'1717.1
2014-Oct-10 11:34N 36°14' E 024°49'1717.0
2014-Oct-10 10:34N 36°24' E 024°32'1716.5
2014-Oct-10 09:34N 36°33' E 024°15'1716.7
2014-Oct-10 08:33N 36°48' E 024°06'1717.1
2014-Oct-10 07:34N 37°04' E 023°58'3517.3
2014-Oct-10 05:34N 37°36' E 023°43'1717.5
2014-Oct-10 04:33N 37°53' E 023°37'4 4.0
2014-Oct-10 03:31N 37°57' E 023°35'0 0.0
2014-Oct-10 02:31N 37°57' E 023°35'0 0.0
2014-Oct-10 01:31N 37°57' E 023°35'0 0.0
2014-Oct-10 00:31N 37°57' E 023°35'0 0.0
2014-Oct-09 23:31N 37°57' E 023°35'0 0.0
2014-Oct-09 22:31N 37°57' E 023°35'0 0.0
2014-Oct-09 21:31N 37°57' E 023°35'0 0.0
2014-Oct-09 20:31N 37°57' E 023°35'0 0.0
2014-Oct-09 19:31N 37°57' E 023°35'0 0.0
2014-Oct-09 18:31N 37°57' E 023°35'0 0.0
2014-Oct-09 17:31N 37°57' E 023°35'0 0.0
2014-Oct-09 16:31N 37°57' E 023°35'0 0.0
2014-Oct-09 15:34N 37°57' E 023°35'0 0.0
2014-Oct-09 14:28N 37°57' E 023°35'0 0.0
2014-Oct-09 13:31N 37°57' E 023°35'0 0.0
2014-Oct-09 12:31N 37°57' E 023°35'0 0.0
2014-Oct-09 11:31N 37°57' E 023°35'0 0.0
2014-Oct-09 10:31N 37°57' E 023°35'0 0.0
2014-Oct-09 09:31N 37°57' E 023°35'0 0.0
2014-Oct-09 08:31N 37°57' E 023°35'0 0.0
2014-Oct-09 07:31N 37°57' E 023°35'0 0.0
2014-Oct-09 06:31N 37°57' E 023°35'0 0.0
2014-Oct-09 05:31N 37°57' E 023°35'2 1.8
2014-Oct-09 04:33N 37°56' E 023°36'3 2.5
2014-Oct-09 03:33N 37°54' E 023°38'7 7.4
2014-Oct-09 02:33N 37°47' E 023°41'1111.4
2014-Oct-09 01:33N 37°36' E 023°45'1514.5
2014-Oct-09 00:33N 37°21' E 023°42'3014.8
2014-Oct-08 22:31N 36°52' E 023°33'1714.9
2014-Oct-08 21:24N 36°35' E 023°30'66715.4
2014-Oct-07 02:06N 37°50' E 009°38'917.1
2014-Oct-07 01:33N 37°51' E 009°26'1717.0
2014-Oct-07 00:34N 37°54' E 009°05'1716.7
2014-Oct-06 23:33N 37°54' E 008°44'1716.9
2014-Oct-06 22:33N 37°53' E 008°23'1716.8
2014-Oct-06 21:33N 37°53' E 008°01'13617.0
2014-Oct-06 13:32N 37°45' E 005°09'1917.4
2014-Oct-06 12:26N 37°44' E 004°45'1517.2
2014-Oct-06 11:33N 37°43' E 004°25'1816.7
2014-Oct-06 10:29N 37°42' E 004°03'1616.7
2014-Oct-06 09:33N 37°42' E 003°43'2423.2
2014-Oct-06 08:32N 37°40' E 003°13'2424.3
2014-Oct-06 07:33N 37°36' E 002°44'2221.6
2014-Oct-06 06:33N 37°29' E 002°18'1717.2
2014-Oct-06 05:33N 37°23' E 001°58'1716.9
2014-Oct-06 04:33N 37°18' E 001°38'1717.1
2014-Oct-06 03:33N 37°12' E 001°17'1717.2
2014-Oct-06 02:33N 37°06' E 000°57'1717.2
2014-Oct-06 01:33N 37°01' E 000°37'1717.4
2014-Oct-06 00:33N 36°55' E 000°16'1717.0
2014-Oct-05 23:33N 36°50' W 000°04'1716.8
2014-Oct-05 22:33N 36°44' W 000°24'1716.8
2014-Oct-05 21:31N 36°39' W 000°45'2316.7
2014-Oct-05 20:09N 36°31' W 001°11'1016.8
2014-Oct-05 19:33N 36°28' W 001°23'19117.4
2014-Oct-05 08:34N 35°60' W 005°18'8116.2
2014-Oct-05 03:33N 36°02' W 006°57'1817.1
2014-Oct-05 02:32N 36°08' W 007°18'1816.9
2014-Oct-05 01:28N 36°12' W 007°40'1517.0
2014-Oct-05 00:33N 36°16' W 007°58'1716.7
2014-Oct-04 23:33N 36°21' W 008°18'1716.5
2014-Oct-04 22:32N 36°25' W 008°38'1616.6
2014-Oct-04 21:34N 36°30' W 008°58'1716.5
2014-Oct-04 20:32N 36°34' W 009°18'1717.0
2014-Oct-04 19:32N 36°47' W 009°32'2017.2
2014-Oct-04 18:23N 37°06' W 009°38'1717.2
2014-Oct-04 17:24N 37°22' W 009°45'1416.9
2014-Oct-04 16:33N 37°36' W 009°48'1717.1
2014-Oct-04 15:32N 37°53' W 009°53'1717.1
2014-Oct-04 14:31N 38°10' W 009°58'1717.1
2014-Oct-04 13:32N 38°26' W 010°02'1717.0
2014-Oct-04 12:32N 38°43' W 010°07'1717.1
2014-Oct-04 11:33N 38°60' W 010°08'1717.1
2014-Oct-04 10:33N 39°17' W 010°08'78215.5
2014-Oct-02 08:12N 50°24' W 000°34'1218.3
2014-Oct-02 07:34N 50°27' W 000°16'1818.0
2014-Oct-02 06:33N 50°32' E 000°12'1717.5
2014-Oct-02 05:34N 50°37' E 000°38'1716.9
2014-Oct-02 04:33N 50°46' E 000°60'1615.9
2014-Oct-02 03:34N 50°56' E 001°20'1716.9
2014-Oct-02 02:34N 51°08' E 001°38'1818.0
2014-Oct-02 01:34N 51°22' E 001°57'1515.0
2014-Oct-02 00:34N 51°21' E 002°21'1716.4
2014-Oct-01 23:33N 51°24' E 002°47'1515.2
2014-Oct-01 22:34N 51°22' E 003°11'1 1.2
2014-Oct-01 21:26N 51°21' E 003°11'0 0.0
2014-Oct-01 20:29N 51°21' E 003°11'0 0.0
2014-Oct-01 19:23N 51°21' E 003°11'0 0.0
2014-Oct-01 18:32N 51°21' E 003°11'0 0.0
2014-Oct-01 17:32N 51°21' E 003°11'0 0.0
2014-Oct-01 16:32N 51°21' E 003°11'0 0.0
2014-Oct-01 15:32N 51°21' E 003°11'0 0.0
2014-Oct-01 14:29N 51°21' E 003°11'0 0.0
2014-Oct-01 13:32N 51°21' E 003°11'0 0.0
2014-Oct-01 12:29N 51°21' E 003°11'0 0.0
2014-Oct-01 11:32N 51°21' E 003°11'0 0.0
2014-Oct-01 10:32N 51°21' E 003°11'0 0.0
2014-Oct-01 09:29N 51°21' E 003°11'0 0.0
2014-Oct-01 08:29N 51°21' E 003°11'0 0.0
2014-Oct-01 07:32N 51°21' E 003°11'0 0.2
2014-Oct-01 06:33N 51°21' E 003°12'5 5.5
2014-Oct-01 05:33N 51°24' E 003°04'1413.8
2014-Oct-01 04:31N 51°23' E 002°42'10 7.6
2014-Oct-01 03:14N 51°21' E 002°26'6 9.4
2014-Oct-01 02:33N 51°18' E 002°17'1212.4
2014-Oct-01 01:34N 51°24' E 001°59'1413.5
2014-Oct-01 00:34N 51°35' E 002°11'1414.0
2014-Sep-30 23:33N 51°45' E 002°26'1414.0
2014-Sep-30 22:33N 51°55' E 002°41'1514.1
2014-Sep-30 21:31N 52°03' E 003°02'1414.7
2014-Sep-30 20:33N 52°03' E 003°25'1515.1
2014-Sep-30 19:33N 52°03' E 003°50'1110.8
2014-Sep-30 18:33N 51°58' E 004°05'2 1.9
2014-Sep-30 17:33N 51°58' E 004°02'0 0.0
2014-Sep-30 16:30N 51°58' E 004°02'0 0.0
2014-Sep-30 15:33N 51°58' E 004°02'  

Dump ship's entire track history